createdAt,value
2018-06-21T00:01:08.898Z,63.70
2018-06-21T00:03:37.085Z,63.70
2018-06-21T00:06:05.258Z,63.80
2018-06-21T00:08:33.426Z,63.80
2018-06-21T00:11:01.609Z,63.80
2018-06-21T00:13:29.774Z,63.80
2018-06-21T00:15:57.968Z,63.90
2018-06-21T00:18:26.263Z,64.10
2018-06-21T00:20:54.384Z,64.00
2018-06-21T00:23:22.586Z,64.10
2018-06-21T00:25:50.766Z,64.10
2018-06-21T00:28:19.008Z,64.20
2018-06-21T00:30:47.241Z,64.30
2018-06-21T00:33:15.426Z,63.70
2018-06-21T00:35:43.610Z,64.50
2018-06-21T00:38:11.777Z,64.50
2018-06-21T00:40:39.971Z,64.50
2018-06-21T00:43:08.126Z,64.50
2018-06-21T00:45:36.305Z,64.70
2018-06-21T00:48:04.473Z,64.80
2018-06-21T00:50:32.642Z,64.90
2018-06-21T00:53:00.830Z,64.90
2018-06-21T00:58:02.562Z,65.00
2018-06-21T01:00:30.930Z,65.10
2018-06-21T01:02:59.081Z,64.90
2018-06-21T01:05:27.265Z,65.10
2018-06-21T01:07:55.426Z,65.00
2018-06-21T01:10:23.569Z,65.00
2018-06-21T01:12:51.753Z,64.80
2018-06-21T01:15:19.926Z,64.80
2018-06-21T01:17:48.106Z,64.70
2018-06-21T01:20:16.282Z,64.70
2018-06-21T01:22:44.439Z,64.50
2018-06-21T01:25:12.621Z,64.50
2018-06-21T01:27:40.880Z,64.40
2018-06-21T01:30:09.052Z,64.40
2018-06-21T01:32:37.219Z,64.40
2018-06-21T01:35:05.802Z,64.40
2018-06-21T01:37:33.981Z,64.40
2018-06-21T01:40:02.161Z,64.40
2018-06-21T01:42:30.338Z,64.30
2018-06-21T01:44:58.522Z,64.20
2018-06-21T01:47:26.713Z,64.30
2018-06-21T01:49:54.888Z,64.30
2018-06-21T01:52:23.254Z,64.30
2018-06-21T01:54:51.430Z,64.30
2018-06-21T01:57:19.629Z,64.40
2018-06-21T01:59:47.821Z,64.40
2018-06-21T02:02:16.018Z,64.30
2018-06-21T02:04:44.178Z,64.40
2018-06-21T02:07:12.381Z,64.60
2018-06-21T02:09:40.566Z,64.70
2018-06-21T02:12:08.733Z,64.70
2018-06-21T02:14:36.919Z,64.70
2018-06-21T02:17:05.075Z,64.70
2018-06-21T02:19:33.258Z,64.70
2018-06-21T02:22:01.418Z,64.80
2018-06-21T02:24:29.627Z,64.70
2018-06-21T02:26:57.778Z,64.70
2018-06-21T02:29:25.944Z,64.80
2018-06-21T02:31:54.102Z,64.90
2018-06-21T02:34:22.333Z,64.80
2018-06-21T02:36:50.434Z,64.80
2018-06-21T02:39:18.605Z,65.00
2018-06-21T02:41:46.778Z,65.00
2018-06-21T02:44:14.949Z,65.10
2018-06-21T02:46:43.122Z,65.10
2018-06-21T02:49:11.299Z,65.20
2018-06-21T02:51:39.457Z,65.30
2018-06-21T02:54:07.630Z,65.30
2018-06-21T02:56:35.818Z,65.30
2018-06-21T02:59:04.006Z,65.40
2018-06-21T03:01:32.186Z,65.50
2018-06-21T03:04:00.520Z,65.70
2018-06-21T03:06:28.645Z,65.70
2018-06-21T03:08:56.810Z,65.80
2018-06-21T03:11:24.957Z,65.90
2018-06-21T03:13:53.114Z,65.90
2018-06-21T03:16:21.290Z,65.90
2018-06-21T03:18:49.458Z,66.00
2018-06-21T03:21:17.633Z,66.10
2018-06-21T03:23:45.806Z,66.10
2018-06-21T03:26:13.984Z,66.20
2018-06-21T03:28:42.165Z,66.30
2018-06-21T03:31:10.325Z,66.40
2018-06-21T03:33:38.501Z,66.50
2018-06-21T03:36:06.731Z,66.60
2018-06-21T03:38:35.032Z,66.50
2018-06-21T03:41:03.256Z,66.60
2018-06-21T03:43:31.430Z,66.70
2018-06-21T03:45:59.602Z,66.80
2018-06-21T03:48:27.797Z,67.00
2018-06-21T03:50:55.966Z,67.10
2018-06-21T03:53:24.141Z,67.20
2018-06-21T03:55:52.329Z,68.10
2018-06-21T03:58:20.490Z,67.40
2018-06-21T04:00:48.653Z,67.40
2018-06-21T04:03:16.837Z,67.50
2018-06-21T04:05:45.015Z,67.60
2018-06-21T04:08:13.177Z,67.70
2018-06-21T04:10:41.397Z,67.80
2018-06-21T04:13:09.592Z,67.90
2018-06-21T04:15:37.780Z,67.90
2018-06-21T04:18:05.959Z,68.10
2018-06-21T04:20:34.372Z,68.20
2018-06-21T04:23:02.529Z,68.40
2018-06-21T04:25:30.770Z,68.40
2018-06-21T04:27:58.937Z,68.50
2018-06-21T04:30:27.115Z,68.60
2018-06-21T04:32:55.409Z,68.70
2018-06-21T04:35:23.662Z,68.80
2018-06-21T04:37:51.864Z,68.80
2018-06-21T04:40:20.033Z,69.00
2018-06-21T04:42:48.221Z,69.10
2018-06-21T04:45:16.418Z,69.10
2018-06-21T04:47:44.626Z,69.20
2018-06-21T04:50:12.805Z,69.30
2018-06-21T04:52:41.216Z,69.30
2018-06-21T04:55:09.398Z,69.40
2018-06-21T04:57:37.562Z,69.40
2018-06-21T05:00:05.776Z,69.50
2018-06-21T05:02:34.124Z,69.70
2018-06-21T05:05:02.328Z,69.80
2018-06-21T05:07:30.525Z,69.80
2018-06-21T05:09:59.322Z,69.90
2018-06-21T05:12:27.558Z,69.90
2018-06-21T05:14:55.771Z,70.00
2018-06-21T05:17:23.958Z,70.00
2018-06-21T05:19:52.151Z,70.10
2018-06-21T05:22:20.401Z,70.40
2018-06-21T05:24:48.598Z,70.70
2018-06-21T05:27:16.813Z,71.00
2018-06-21T05:29:45.026Z,71.30
2018-06-21T05:32:13.322Z,71.50
2018-06-21T05:34:41.761Z,71.70
2018-06-21T05:37:09.949Z,71.90
2018-06-21T05:39:38.125Z,72.20
2018-06-21T05:42:06.297Z,72.30
2018-06-21T05:44:34.558Z,72.40
2018-06-21T05:47:02.824Z,72.70
2018-06-21T05:49:31.067Z,72.90
2018-06-21T05:51:59.233Z,73.00
2018-06-21T05:54:27.491Z,73.20
2018-06-21T05:56:55.670Z,73.30
2018-06-21T05:59:23.838Z,73.20
2018-06-21T06:01:52.058Z,73.20
2018-06-21T06:04:20.197Z,73.10
2018-06-21T06:06:48.353Z,73.10
2018-06-21T06:09:16.529Z,73.10
2018-06-21T06:11:44.761Z,73.20
2018-06-21T06:14:13.049Z,73.40
2018-06-21T06:16:41.102Z,73.40
2018-06-21T06:19:09.282Z,73.70
2018-06-21T06:21:37.458Z,73.90
2018-06-21T06:24:05.646Z,74.90
2018-06-21T06:26:33.835Z,75.20
2018-06-21T06:29:02.007Z,74.40
2018-06-21T06:31:30.169Z,73.80
2018-06-21T06:33:58.342Z,73.40
2018-06-21T06:36:26.508Z,73.20
2018-06-21T06:38:54.705Z,73.00
2018-06-21T06:41:23.041Z,72.90
2018-06-21T06:43:51.211Z,72.80
2018-06-21T06:46:19.398Z,72.60
2018-06-21T06:48:47.548Z,72.50
2018-06-21T06:51:15.692Z,72.80
2018-06-21T06:53:43.857Z,73.00
2018-06-21T06:56:12.122Z,72.90
2018-06-21T06:58:40.285Z,73.20
2018-06-21T07:01:08.709Z,73.40
2018-06-21T07:03:36.886Z,73.40
2018-06-21T07:06:05.138Z,73.50
2018-06-21T07:08:33.418Z,73.40
2018-06-21T07:11:01.497Z,73.50
2018-06-21T07:13:29.678Z,73.70
2018-06-21T07:15:57.862Z,73.60
2018-06-21T07:18:26.018Z,73.70
2018-06-21T07:20:54.276Z,73.80
2018-06-21T07:23:22.457Z,73.40
2018-06-21T07:25:50.973Z,73.50
2018-06-21T07:28:19.153Z,73.40
2018-06-21T07:30:47.563Z,73.10
2018-06-21T07:33:15.725Z,73.10
2018-06-21T07:35:43.921Z,72.80
2018-06-21T07:38:13.175Z,72.40
2018-06-21T07:43:09.365Z,72.40
2018-06-21T07:45:37.562Z,72.20
2018-06-21T07:48:05.729Z,72.80
2018-06-21T07:50:33.890Z,72.60
2018-06-21T07:53:02.129Z,72.00
2018-06-21T07:55:30.367Z,71.70
2018-06-21T07:57:58.556Z,71.20
2018-06-21T08:00:26.721Z,71.60
2018-06-21T08:02:54.894Z,71.80
2018-06-21T08:05:23.781Z,72.80
2018-06-21T08:07:51.933Z,71.90
2018-06-21T08:10:20.095Z,72.00
2018-06-21T08:12:48.303Z,72.10
2018-06-21T08:15:16.464Z,72.00
2018-06-21T08:17:44.637Z,71.80
2018-06-21T08:20:12.851Z,71.70
2018-06-21T08:22:41.057Z,71.50
2018-06-21T08:25:09.229Z,71.70
2018-06-21T08:27:37.383Z,71.90
2018-06-21T08:30:05.689Z,71.50
2018-06-21T08:32:33.915Z,71.00
2018-06-21T08:35:02.090Z,70.40
2018-06-21T08:37:30.273Z,70.20
2018-06-21T08:39:58.459Z,70.30
2018-06-21T08:42:26.658Z,70.70
2018-06-21T08:44:54.829Z,70.70
2018-06-21T08:47:23.479Z,70.40
2018-06-21T08:49:51.682Z,69.90
2018-06-21T08:52:19.837Z,69.30
2018-06-21T08:54:48.045Z,68.90
2018-06-21T08:57:16.201Z,68.70
2018-06-21T08:59:44.379Z,68.60
2018-06-21T09:02:12.522Z,68.90
2018-06-21T09:04:40.689Z,68.00
2018-06-21T09:07:08.865Z,66.80
2018-06-21T09:12:04.957Z,66.50
2018-06-21T09:14:33.199Z,66.20
2018-06-21T09:17:01.473Z,65.40
2018-06-21T09:19:29.645Z,64.20
2018-06-21T09:21:57.805Z,64.40
2018-06-21T09:24:25.995Z,64.40
2018-06-21T09:26:54.205Z,63.90
2018-06-21T09:29:22.585Z,63.10
2018-06-21T09:31:50.763Z,62.40
2018-06-21T09:34:19.173Z,61.90
2018-06-21T09:36:47.385Z,61.10
2018-06-21T09:39:21.047Z,61.10
2018-06-21T09:41:54.831Z,61.10
2018-06-21T09:44:28.365Z,62.20
2018-06-21T09:47:02.090Z,61.70
2018-06-21T09:49:31.481Z,61.70
2018-06-21T09:52:01.989Z,62.20
2018-06-21T09:54:30.573Z,61.80
2018-06-21T09:59:27.333Z,60.80
2018-06-21T10:01:55.629Z,60.40
2018-06-21T10:04:23.790Z,60.00
2018-06-21T10:06:51.940Z,59.70
2018-06-21T10:09:20.123Z,59.30
2018-06-21T10:11:48.500Z,58.90
2018-06-21T10:14:16.666Z,58.10
2018-06-21T10:16:44.825Z,57.30
2018-06-21T10:19:12.976Z,56.50
2018-06-21T10:21:41.131Z,55.70
2018-06-21T10:24:09.277Z,55.40
2018-06-21T10:26:37.441Z,54.10
2018-06-21T10:29:05.640Z,52.60
2018-06-21T10:31:33.793Z,52.70
2018-06-21T10:34:01.955Z,53.00
2018-06-21T10:36:30.113Z,53.30
2018-06-21T10:38:58.289Z,53.00
2018-06-21T10:41:26.473Z,52.70
2018-06-21T10:43:54.639Z,52.00
2018-06-21T10:46:22.809Z,51.10
2018-06-21T10:48:50.976Z,50.90
2018-06-21T10:51:19.161Z,50.90
2018-06-21T10:53:47.469Z,50.30
2018-06-21T10:56:15.635Z,49.70
2018-06-21T10:58:43.790Z,48.90
2018-06-21T11:01:12.014Z,48.50
2018-06-21T11:03:40.160Z,47.90
2018-06-21T11:06:08.324Z,47.50
2018-06-21T11:08:36.558Z,47.90
2018-06-21T11:11:04.671Z,48.00
2018-06-21T11:13:32.807Z,47.80
2018-06-21T11:16:01.790Z,48.70
2018-06-21T11:18:29.970Z,47.50
2018-06-21T11:20:58.202Z,47.40
2018-06-21T11:23:26.417Z,46.90
2018-06-21T11:25:54.601Z,46.60
2018-06-21T11:28:22.785Z,46.30
2018-06-21T11:30:51.106Z,46.30
2018-06-21T11:33:19.274Z,46.70
2018-06-21T11:35:47.439Z,46.90
2018-06-21T11:38:15.666Z,47.00
2018-06-21T11:40:43.798Z,46.50
2018-06-21T11:43:11.978Z,46.10
2018-06-21T11:45:40.135Z,46.20
2018-06-21T11:48:08.310Z,46.10
2018-06-21T11:50:36.502Z,45.40
2018-06-21T11:53:04.941Z,45.30
2018-06-21T11:55:33.319Z,44.90
2018-06-21T11:58:01.582Z,44.60
2018-06-21T12:00:29.746Z,44.20
2018-06-21T12:02:57.934Z,45.20
2018-06-21T12:05:26.109Z,45.60
2018-06-21T12:07:54.286Z,44.80
2018-06-21T12:10:22.450Z,44.50
2018-06-21T12:12:50.634Z,44.00
2018-06-21T12:15:18.789Z,43.20
2018-06-21T12:17:46.949Z,43.10
2018-06-21T12:20:15.107Z,43.20
2018-06-21T12:22:43.270Z,42.90
2018-06-21T12:25:11.413Z,42.70
2018-06-21T12:27:39.569Z,42.40
2018-06-21T12:30:07.716Z,42.50
2018-06-21T12:32:35.871Z,42.30
2018-06-21T12:35:04.022Z,42.40
2018-06-21T12:37:32.173Z,42.50
2018-06-21T12:40:00.358Z,42.10
2018-06-21T12:42:28.546Z,40.90
2018-06-21T12:44:56.705Z,40.30
2018-06-21T12:47:24.857Z,39.60
2018-06-21T12:49:53.122Z,39.30
2018-06-21T12:52:21.348Z,39.60
2018-06-21T12:54:49.509Z,40.10
2018-06-21T12:57:17.717Z,39.80
2018-06-21T12:59:45.885Z,40.00
2018-06-21T13:02:14.062Z,39.50
2018-06-21T13:04:42.778Z,39.20
2018-06-21T13:07:10.946Z,39.60
2018-06-21T13:09:50.742Z,40.00
2018-06-21T13:12:31.778Z,39.60
2018-06-21T13:15:00.052Z,39.90
2018-06-21T13:17:29.278Z,39.60
2018-06-21T13:19:58.065Z,39.60
2018-06-21T13:22:26.790Z,39.90
2018-06-21T13:24:54.989Z,40.00
2018-06-21T13:27:23.325Z,40.50
2018-06-21T13:29:51.581Z,40.40
2018-06-21T13:32:20.153Z,39.60
2018-06-21T13:34:48.495Z,39.10
2018-06-21T13:37:16.734Z,39.30
2018-06-21T13:39:44.901Z,39.30
2018-06-21T13:44:41.244Z,39.60
2018-06-21T13:49:37.332Z,38.50
2018-06-21T13:52:05.506Z,38.20
2018-06-21T13:54:33.785Z,38.20
2018-06-21T13:57:01.984Z,38.10
2018-06-21T13:59:30.131Z,38.20
2018-06-21T14:01:58.301Z,38.60
2018-06-21T14:04:26.445Z,38.90
2018-06-21T14:06:54.601Z,39.50
2018-06-21T14:09:22.775Z,39.40
2018-06-21T14:11:50.918Z,39.50
2018-06-21T14:14:19.064Z,39.70
2018-06-21T14:16:47.221Z,39.80
2018-06-21T14:19:15.449Z,39.60
2018-06-21T14:21:43.653Z,39.70
2018-06-21T14:24:13.029Z,39.90
2018-06-21T14:26:41.662Z,39.80
2018-06-21T14:29:09.809Z,39.60
2018-06-21T14:34:06.010Z,39.40
2018-06-21T14:36:34.446Z,39.40
2018-06-21T14:39:03.431Z,39.40
2018-06-21T14:41:31.601Z,39.50
2018-06-21T14:43:59.750Z,39.70
2018-06-21T14:46:27.902Z,39.90
2018-06-21T14:48:56.543Z,40.10
2018-06-21T14:51:24.690Z,40.50
2018-06-21T14:53:52.870Z,41.20
2018-06-21T14:56:21.027Z,41.60
2018-06-21T14:58:49.190Z,41.90
2018-06-21T15:01:17.361Z,42.00
2018-06-21T15:03:45.529Z,41.80
2018-06-21T15:06:13.702Z,41.80
2018-06-21T15:08:41.869Z,41.90
2018-06-21T15:11:10.087Z,42.10
2018-06-21T15:13:38.216Z,42.40
2018-06-21T15:16:06.410Z,42.70
2018-06-21T15:18:34.576Z,43.60
2018-06-21T15:21:02.814Z,43.40
2018-06-21T15:23:31.012Z,43.70
2018-06-21T15:25:59.218Z,43.70
2018-06-21T15:28:27.377Z,44.00
2018-06-21T15:30:55.581Z,44.10
2018-06-21T15:35:51.681Z,43.50
2018-06-21T15:38:20.257Z,43.50
2018-06-21T15:40:48.454Z,43.50
2018-06-21T15:43:16.621Z,43.80
2018-06-21T15:45:44.792Z,44.20
2018-06-21T15:48:12.987Z,44.60
2018-06-21T15:50:41.245Z,44.30
2018-06-21T15:53:09.483Z,44.10
2018-06-21T15:55:37.693Z,44.00
2018-06-21T15:58:05.997Z,44.00
2018-06-21T16:00:34.174Z,44.30
2018-06-21T16:03:02.797Z,44.50
2018-06-21T16:05:30.986Z,44.00
2018-06-21T16:07:59.158Z,44.50
2018-06-21T16:10:27.341Z,44.70
2018-06-21T16:12:55.496Z,44.80
2018-06-21T16:15:23.725Z,45.40
2018-06-21T16:17:51.890Z,44.50
2018-06-21T16:20:20.083Z,44.40
2018-06-21T16:22:48.341Z,44.30
2018-06-21T16:25:16.465Z,44.20
2018-06-21T16:27:44.683Z,44.20
2018-06-21T16:30:12.872Z,44.10
2018-06-21T16:32:41.135Z,44.10
2018-06-21T16:35:09.305Z,44.20
2018-06-21T16:37:37.457Z,44.40
2018-06-21T16:40:05.709Z,44.50
2018-06-21T16:42:33.892Z,44.70
2018-06-21T16:45:02.127Z,45.20
2018-06-21T16:47:30.306Z,45.50
2018-06-21T16:49:58.498Z,46.50
2018-06-21T16:52:26.757Z,46.10
2018-06-21T16:54:54.950Z,46.20
2018-06-21T16:57:23.126Z,46.60
2018-06-21T16:59:51.278Z,46.80
2018-06-21T17:02:19.433Z,46.70
2018-06-21T17:04:47.595Z,46.60
2018-06-21T17:07:15.794Z,47.50
2018-06-21T17:09:43.981Z,46.40
2018-06-21T17:12:12.162Z,46.90
2018-06-21T17:14:40.331Z,46.90
2018-06-21T17:17:08.596Z,47.10
2018-06-21T17:19:36.686Z,47.30
2018-06-21T17:22:04.882Z,47.20
2018-06-21T17:24:33.090Z,47.00
2018-06-21T17:27:01.306Z,47.10
2018-06-21T17:29:29.506Z,47.20
2018-06-21T17:31:57.724Z,47.20
2018-06-21T17:34:25.951Z,47.30
2018-06-21T17:36:54.204Z,47.40
2018-06-21T17:39:22.348Z,47.50
2018-06-21T17:41:50.554Z,47.50
2018-06-21T17:44:18.741Z,47.40
2018-06-21T17:46:46.998Z,47.20
2018-06-21T17:49:15.282Z,46.60
2018-06-21T17:51:43.454Z,46.20
2018-06-21T17:54:11.637Z,45.80
2018-06-21T17:56:39.814Z,45.30
2018-06-21T17:59:09.047Z,45.20
2018-06-21T18:01:38.163Z,45.20
2018-06-21T18:04:06.574Z,45.20
2018-06-21T18:06:35.065Z,45.30
2018-06-21T18:09:05.519Z,45.40
2018-06-21T18:11:34.141Z,45.10
2018-06-21T18:14:03.936Z,44.80
2018-06-21T18:16:32.311Z,44.50
2018-06-21T18:19:00.890Z,44.10
2018-06-21T18:21:29.433Z,43.90
2018-06-21T18:23:59.262Z,44.20
2018-06-21T18:26:27.554Z,44.30
2018-06-21T18:28:56.194Z,44.40
2018-06-21T18:31:25.228Z,44.60
2018-06-21T18:33:53.820Z,44.70
2018-06-21T18:36:23.283Z,44.80
2018-06-21T18:38:51.949Z,44.80
2018-06-21T18:41:21.510Z,44.80
2018-06-21T18:43:50.739Z,45.10
2018-06-21T18:46:20.191Z,45.20
2018-06-21T18:48:48.655Z,45.30
2018-06-21T18:51:17.081Z,45.40
2018-06-21T18:53:45.959Z,45.80
2018-06-21T18:56:14.150Z,45.90
2018-06-21T18:58:42.788Z,45.80
2018-06-21T19:01:12.788Z,45.80
2018-06-21T19:03:41.445Z,46.10
2018-06-21T19:06:15.372Z,46.40
2018-06-21T19:08:49.822Z,46.50
2018-06-21T19:11:24.018Z,46.70
2018-06-21T19:13:53.050Z,47.00
2018-06-21T19:16:21.382Z,47.00
2018-06-21T19:18:50.290Z,47.20
2018-06-21T19:21:18.948Z,47.30
2018-06-21T19:23:48.037Z,48.10
2018-06-21T19:26:17.133Z,47.40
2018-06-21T19:28:45.889Z,47.30
2018-06-21T19:31:15.820Z,47.70
2018-06-21T19:33:44.697Z,47.90
2018-06-21T19:36:13.474Z,48.20
2018-06-21T19:38:42.099Z,48.50
2018-06-21T19:41:10.513Z,48.70
2018-06-21T19:43:38.858Z,48.90
2018-06-21T19:46:07.122Z,49.00
2018-06-21T19:48:36.521Z,49.10
2018-06-21T19:51:04.803Z,49.40
2018-06-21T19:53:33.162Z,49.50
2018-06-21T19:56:01.458Z,49.30
2018-06-21T19:58:29.713Z,49.70
2018-06-21T20:00:58.071Z,49.80
2018-06-21T20:03:26.306Z,50.00
2018-06-21T20:05:54.482Z,50.90
2018-06-21T20:08:22.658Z,50.30
2018-06-21T20:10:56.208Z,50.50
2018-06-21T20:13:24.398Z,50.70
2018-06-21T20:15:53.661Z,50.70
2018-06-21T20:18:22.193Z,50.90
2018-06-21T20:20:50.577Z,51.00
2018-06-21T20:23:19.908Z,51.00
2018-06-21T20:25:48.086Z,51.20
2018-06-21T20:28:16.555Z,51.40
2018-06-21T20:30:45.496Z,52.10
2018-06-21T20:33:13.769Z,51.70
2018-06-21T20:35:42.054Z,51.80
2018-06-21T20:38:10.288Z,51.90
2018-06-21T20:40:38.426Z,52.00
2018-06-21T20:43:06.601Z,52.20
2018-06-21T20:45:34.799Z,52.30
2018-06-21T20:48:02.970Z,52.50
2018-06-21T20:50:31.201Z,52.60
2018-06-21T20:52:59.362Z,52.70
2018-06-21T20:55:27.583Z,52.70
2018-06-21T20:57:55.769Z,52.80
2018-06-21T21:00:23.941Z,52.90
2018-06-21T21:02:52.115Z,52.90
2018-06-21T21:05:20.389Z,53.00
2018-06-21T21:07:49.811Z,53.00
2018-06-21T21:10:18.789Z,53.10
2018-06-21T21:12:47.009Z,53.20
2018-06-21T21:15:15.612Z,53.30
2018-06-21T21:17:43.797Z,53.40
2018-06-21T21:20:11.970Z,53.50
2018-06-21T21:22:40.853Z,53.60
2018-06-21T21:25:09.063Z,53.50
2018-06-21T21:27:37.234Z,53.70
2018-06-21T21:30:06.778Z,53.80
2018-06-21T21:32:35.090Z,53.80
2018-06-21T21:35:03.294Z,53.90
2018-06-21T21:37:31.477Z,54.00
2018-06-21T21:40:03.075Z,54.00
2018-06-21T21:42:32.277Z,54.10
2018-06-21T21:45:00.478Z,54.10
2018-06-21T21:47:28.779Z,54.20
2018-06-21T21:49:57.082Z,54.30
2018-06-21T21:52:25.345Z,54.30
2018-06-21T21:54:53.524Z,54.40
2018-06-21T21:57:21.705Z,54.30
2018-06-21T21:59:50.308Z,54.30
2018-06-21T22:02:18.802Z,54.20
2018-06-21T22:04:47.282Z,54.40
2018-06-21T22:07:15.601Z,54.10
2018-06-21T22:09:44.226Z,54.30
2018-06-21T22:12:12.406Z,54.30
2018-06-21T22:14:40.585Z,54.00
2018-06-21T22:17:08.802Z,55.00
2018-06-21T22:19:36.982Z,54.30
2018-06-21T22:22:05.232Z,54.30
2018-06-21T22:24:33.401Z,54.30
2018-06-21T22:27:01.587Z,54.40
2018-06-21T22:29:29.982Z,54.40
2018-06-21T22:31:58.150Z,54.30
2018-06-21T22:34:26.321Z,54.20
2018-06-21T22:36:54.506Z,54.20
2018-06-21T22:39:22.798Z,54.10
2018-06-21T22:41:50.977Z,54.00
2018-06-21T22:44:19.145Z,54.20
2018-06-21T22:46:47.337Z,54.30
2018-06-21T22:49:15.513Z,54.30
2018-06-21T22:51:43.689Z,54.20
2018-06-21T22:54:11.862Z,53.60
2018-06-21T22:56:40.061Z,54.00
2018-06-21T22:59:08.233Z,54.00
2018-06-21T23:01:36.434Z,54.00
2018-06-21T23:04:04.606Z,54.00
2018-06-21T23:06:32.797Z,54.70
2018-06-21T23:09:00.973Z,54.10
2018-06-21T23:11:29.215Z,54.00
2018-06-21T23:13:57.362Z,54.20
2018-06-21T23:16:25.533Z,54.20
2018-06-21T23:19:04.949Z,54.50
2018-06-21T23:21:33.125Z,54.60
2018-06-21T23:24:01.303Z,54.70
2018-06-21T23:26:29.482Z,54.80
2018-06-21T23:28:57.666Z,54.80
2018-06-21T23:31:25.867Z,55.00
2018-06-21T23:33:54.058Z,54.40
2018-06-21T23:36:22.242Z,55.10
2018-06-21T23:38:50.418Z,55.10
2018-06-21T23:41:18.606Z,55.10
2018-06-21T23:43:46.773Z,55.20
2018-06-21T23:46:14.946Z,55.30
2018-06-21T23:48:43.138Z,55.40
2018-06-21T23:51:11.281Z,55.50
2018-06-21T23:53:39.446Z,55.70
2018-06-21T23:56:07.618Z,55.80
2018-06-21T23:58:35.801Z,55.80
